createdAt,value
2018-08-12T00:00:24.520Z,0.00
2018-08-12T00:01:24.474Z,0.00
2018-08-12T00:02:24.464Z,0.00
2018-08-12T00:03:24.464Z,0.00
2018-08-12T00:04:24.462Z,0.00
2018-08-12T00:05:24.458Z,0.00
2018-08-12T00:06:24.466Z,0.00
2018-08-12T00:07:24.458Z,0.00
2018-08-12T00:08:24.457Z,0.00
2018-08-12T00:09:24.466Z,0.00
2018-08-12T00:10:24.469Z,0.00
2018-08-12T00:11:24.453Z,0.00
2018-08-12T00:12:24.451Z,0.00
2018-08-12T00:13:24.451Z,0.00
2018-08-12T00:14:24.451Z,0.00
2018-08-12T00:15:24.455Z,0.00
2018-08-12T00:16:24.448Z,0.00
2018-08-12T00:17:24.448Z,0.00
2018-08-12T00:18:24.446Z,0.00
2018-08-12T00:19:24.447Z,0.00
2018-08-12T00:20:24.441Z,0.00
2018-08-12T00:21:24.443Z,0.00
2018-08-12T00:22:24.442Z,0.00
2018-08-12T00:23:24.441Z,0.00
2018-08-12T00:24:24.440Z,0.00
2018-08-12T00:25:24.438Z,0.00
2018-08-12T00:26:24.437Z,0.00
2018-08-12T00:27:24.440Z,0.00
2018-08-12T00:28:24.434Z,0.00
2018-08-12T00:29:24.434Z,0.00
2018-08-12T00:30:24.435Z,0.00
2018-08-12T00:31:24.433Z,0.00
2018-08-12T00:32:24.435Z,0.00
2018-08-12T00:33:24.435Z,0.00
2018-08-12T00:34:24.431Z,0.00
2018-08-12T00:35:24.429Z,0.00
2018-08-12T00:36:24.425Z,0.00
2018-08-12T00:37:24.425Z,0.00
2018-08-12T00:38:24.426Z,0.00
2018-08-12T00:39:24.424Z,0.00
2018-08-12T00:40:24.420Z,0.00
2018-08-12T00:41:24.422Z,0.00
2018-08-12T00:42:24.419Z,0.00
2018-08-12T00:43:24.420Z,0.00
2018-08-12T00:44:24.418Z,0.00
2018-08-12T00:45:24.416Z,0.00
2018-08-12T00:46:24.416Z,0.00
2018-08-12T00:47:24.411Z,0.00
2018-08-12T00:48:24.411Z,0.00
2018-08-12T00:49:24.412Z,0.00
2018-08-12T00:50:24.488Z,0.00
2018-08-12T00:51:24.409Z,0.00
2018-08-12T00:52:24.416Z,0.00
2018-08-12T00:53:24.407Z,0.00
2018-08-12T00:54:24.405Z,0.00
2018-08-12T00:55:24.404Z,0.00
2018-08-12T00:56:24.401Z,0.00
2018-08-12T00:57:24.400Z,0.00
2018-08-12T00:58:24.402Z,0.00
2018-08-12T00:59:24.398Z,0.00
2018-08-12T01:00:24.398Z,0.00
2018-08-12T01:01:24.396Z,0.00
2018-08-12T01:02:24.396Z,0.00
2018-08-12T01:03:24.393Z,0.00
2018-08-12T01:04:24.391Z,0.00
2018-08-12T01:05:24.393Z,0.00
2018-08-12T01:06:24.390Z,0.00
2018-08-12T01:07:24.388Z,0.00
2018-08-12T01:08:24.386Z,0.00
2018-08-12T01:09:24.387Z,0.00
2018-08-12T01:10:24.387Z,0.00
2018-08-12T01:11:24.380Z,0.00
2018-08-12T01:12:24.380Z,0.00
2018-08-12T01:13:24.380Z,0.00
2018-08-12T01:14:24.376Z,0.00
2018-08-12T01:15:24.378Z,0.00
2018-08-12T01:16:24.376Z,0.00
2018-08-12T01:17:24.373Z,0.00
2018-08-12T01:18:24.373Z,0.00
2018-08-12T01:19:24.375Z,0.00
2018-08-12T01:20:24.373Z,0.00
2018-08-12T01:21:24.368Z,0.00
2018-08-12T01:22:24.367Z,0.00
2018-08-12T01:23:24.364Z,0.00
2018-08-12T01:24:24.365Z,0.00
2018-08-12T01:25:24.361Z,0.00
2018-08-12T01:26:24.363Z,0.00
2018-08-12T01:27:24.361Z,0.00
2018-08-12T01:28:24.356Z,0.00
2018-08-12T01:29:24.358Z,0.00
2018-08-12T01:30:24.356Z,0.00
2018-08-12T01:31:24.352Z,0.00
2018-08-12T01:32:24.357Z,0.00
2018-08-12T01:33:24.353Z,0.00
2018-08-12T01:34:24.354Z,0.00
2018-08-12T01:35:24.352Z,0.00
2018-08-12T01:36:24.347Z,0.00
2018-08-12T01:37:24.346Z,0.00
2018-08-12T01:38:24.343Z,0.00
2018-08-12T01:39:24.345Z,0.00
2018-08-12T01:40:24.340Z,0.00
2018-08-12T01:41:24.340Z,0.00
2018-08-12T01:42:24.338Z,0.00
2018-08-12T01:43:24.337Z,0.00
2018-08-12T01:44:24.335Z,0.00
2018-08-12T01:45:24.335Z,0.00
2018-08-12T01:46:24.332Z,0.00
2018-08-12T01:47:24.332Z,0.00
2018-08-12T01:48:24.334Z,0.00
2018-08-12T01:49:24.326Z,0.00
2018-08-12T01:50:24.328Z,0.00
2018-08-12T01:51:24.328Z,0.00
2018-08-12T01:52:24.327Z,0.00
2018-08-12T01:53:24.322Z,0.00
2018-08-12T01:54:24.318Z,0.00
2018-08-12T01:55:24.320Z,0.00
2018-08-12T01:56:24.314Z,0.00
2018-08-12T01:57:24.317Z,0.00
2018-08-12T01:58:24.315Z,0.00
2018-08-12T01:59:24.312Z,0.00
2018-08-12T02:00:24.310Z,0.00
2018-08-12T02:01:24.308Z,0.00
2018-08-12T02:02:24.308Z,0.00
2018-08-12T02:03:24.306Z,0.00
2018-08-12T02:04:24.304Z,0.00
2018-08-12T02:05:24.306Z,0.00
2018-08-12T02:06:24.301Z,0.00
2018-08-12T02:07:24.300Z,0.00
2018-08-12T02:08:24.305Z,0.00
2018-08-12T02:09:24.295Z,0.00
2018-08-12T02:10:24.296Z,0.00
2018-08-12T02:11:24.292Z,0.00
2018-08-12T02:12:24.293Z,0.00
2018-08-12T02:13:24.288Z,0.00
2018-08-12T02:14:24.286Z,0.00
2018-08-12T02:15:24.286Z,0.00
2018-08-12T02:16:24.284Z,0.00
2018-08-12T02:17:24.282Z,0.00
2018-08-12T02:18:24.288Z,0.00
2018-08-12T02:19:24.279Z,0.00
2018-08-12T02:20:24.278Z,0.00
2018-08-12T02:21:24.275Z,0.00
2018-08-12T02:22:24.273Z,0.00
2018-08-12T02:23:24.272Z,0.00
2018-08-12T02:24:24.270Z,0.00
2018-08-12T02:25:24.268Z,0.00
2018-08-12T02:26:24.266Z,0.00
2018-08-12T02:27:24.265Z,0.00
2018-08-12T02:28:24.263Z,0.00
2018-08-12T02:29:24.260Z,0.00
2018-08-12T02:30:24.260Z,0.00
2018-08-12T02:31:24.258Z,0.00
2018-08-12T02:32:24.254Z,0.00
2018-08-12T02:33:24.252Z,0.00
2018-08-12T02:34:24.252Z,0.00
2018-08-12T02:35:24.252Z,0.00
2018-08-12T02:36:24.248Z,0.00
2018-08-12T02:37:24.249Z,0.00
2018-08-12T02:38:24.244Z,0.00
2018-08-12T02:39:24.244Z,0.00
2018-08-12T02:40:24.242Z,0.00
2018-08-12T02:41:24.242Z,0.00
2018-08-12T02:42:24.237Z,0.00
2018-08-12T02:43:24.244Z,0.00
2018-08-12T02:44:24.238Z,0.00
2018-08-12T02:45:24.235Z,0.00
2018-08-12T02:46:24.234Z,0.00
2018-08-12T02:47:24.228Z,0.00
2018-08-12T02:48:24.227Z,0.00
2018-08-12T02:49:24.228Z,0.00
2018-08-12T02:50:24.222Z,0.00
2018-08-12T02:51:24.219Z,0.00
2018-08-12T02:52:24.236Z,0.00
2018-08-12T02:53:24.216Z,0.00
2018-08-12T02:54:24.215Z,0.00
2018-08-12T02:55:24.212Z,0.00
2018-08-12T02:56:24.215Z,0.00
2018-08-12T02:57:24.211Z,0.00
2018-08-12T02:58:24.208Z,0.00
2018-08-12T02:59:24.207Z,0.00
2018-08-12T03:00:24.204Z,0.00
2018-08-12T03:01:24.210Z,0.00
2018-08-12T03:02:24.200Z,0.00
2018-08-12T03:03:24.203Z,0.00
2018-08-12T03:04:24.195Z,4.00
2018-08-12T03:05:24.198Z,4.00
2018-08-12T03:06:24.193Z,0.00
2018-08-12T03:07:24.188Z,0.00
2018-08-12T03:08:24.186Z,4.00
2018-08-12T03:09:24.185Z,4.00
2018-08-12T03:10:24.188Z,0.00
2018-08-12T03:11:24.184Z,4.00
2018-08-12T03:12:24.181Z,4.00
2018-08-12T03:13:24.179Z,4.00
2018-08-12T03:14:24.175Z,8.00
2018-08-12T03:15:24.181Z,8.00
2018-08-12T03:16:24.172Z,8.00
2018-08-12T03:17:24.169Z,8.00
2018-08-12T03:18:24.169Z,8.00
2018-08-12T03:19:24.167Z,12.00
2018-08-12T03:20:24.163Z,12.00
2018-08-12T03:21:24.164Z,16.00
2018-08-12T03:22:24.221Z,16.00
2018-08-12T03:23:24.158Z,20.00
2018-08-12T03:24:24.159Z,20.00
2018-08-12T03:25:24.153Z,24.00
2018-08-12T03:26:24.154Z,28.00
2018-08-12T03:27:24.150Z,32.00
2018-08-12T03:28:24.153Z,36.00
2018-08-12T03:29:24.146Z,44.00
2018-08-12T03:30:24.219Z,52.00
2018-08-12T03:31:24.142Z,52.00
2018-08-12T03:32:24.140Z,60.00
2018-08-12T03:33:24.136Z,68.00
2018-08-12T03:34:24.137Z,76.00
2018-08-12T03:35:24.135Z,84.00
2018-08-12T03:36:24.131Z,96.00
2018-08-12T03:37:24.131Z,108.00
2018-08-12T03:38:24.129Z,120.00
2018-08-12T03:39:24.127Z,132.00
2018-08-12T03:40:24.128Z,152.00
2018-08-12T03:41:24.122Z,168.00
2018-08-12T03:42:24.120Z,188.00
2018-08-12T03:43:24.122Z,204.00
2018-08-12T03:44:24.117Z,220.00
2018-08-12T03:45:24.115Z,240.00
2018-08-12T03:46:24.114Z,256.00
2018-08-12T03:47:24.113Z,276.00
2018-08-12T03:48:24.109Z,296.00
2018-08-12T03:49:24.112Z,320.00
2018-08-12T03:50:24.105Z,340.00
2018-08-12T03:51:24.107Z,364.00
2018-08-12T03:52:24.101Z,384.00
2018-08-12T03:53:24.100Z,412.00
2018-08-12T03:54:24.099Z,436.00
2018-08-12T03:55:24.096Z,468.00
2018-08-12T03:56:24.096Z,496.00
2018-08-12T03:57:24.093Z,528.00
2018-08-12T03:58:24.089Z,556.00
2018-08-12T03:59:24.095Z,592.00
2018-08-12T04:00:24.087Z,636.00
2018-08-12T04:01:24.086Z,676.00
2018-08-12T04:02:24.162Z,712.00
2018-08-12T04:03:24.083Z,744.00
2018-08-12T04:04:24.082Z,780.00
2018-08-12T04:05:24.079Z,808.00
2018-08-12T04:06:24.076Z,828.00
2018-08-12T04:07:24.074Z,844.00
2018-08-12T04:08:24.074Z,868.00
2018-08-12T04:09:24.071Z,896.00
2018-08-12T04:10:24.071Z,928.00
2018-08-12T04:11:24.068Z,944.00
2018-08-12T04:12:24.068Z,976.00
2018-08-12T04:13:24.067Z,1024.00
2018-08-12T04:14:24.064Z,1076.00
2018-08-12T04:15:24.064Z,1108.00
2018-08-12T04:16:24.060Z,1128.00
2018-08-12T04:17:24.058Z,1148.00
2018-08-12T04:18:24.058Z,1184.00
2018-08-12T04:19:24.058Z,1216.00
2018-08-12T04:20:24.055Z,1268.00
2018-08-12T04:21:24.052Z,1316.00
2018-08-12T04:22:24.052Z,1344.00
2018-08-12T04:23:24.049Z,1352.00
2018-08-12T04:24:24.045Z,1344.00
2018-08-12T04:25:24.044Z,1344.00
2018-08-12T04:26:24.045Z,1364.00
2018-08-12T04:27:24.043Z,1440.00
2018-08-12T04:28:24.044Z,1556.00
2018-08-12T04:29:24.040Z,1632.00
2018-08-12T04:30:24.038Z,1668.00
2018-08-12T04:31:24.037Z,1696.00
2018-08-12T04:32:24.035Z,1744.00
2018-08-12T04:33:24.033Z,1780.00
2018-08-12T04:34:24.032Z,1824.00
2018-08-12T04:35:24.031Z,1888.00
2018-08-12T04:36:24.029Z,1956.00
2018-08-12T04:37:24.028Z,2028.00
2018-08-12T04:38:24.030Z,2052.00
2018-08-12T04:39:24.031Z,2184.00
2018-08-12T04:40:24.025Z,2276.00
2018-08-12T04:41:24.022Z,2392.00
2018-08-12T04:42:24.022Z,2528.00
2018-08-12T04:43:24.021Z,2672.00
2018-08-12T04:44:24.018Z,2832.00
2018-08-12T04:45:24.021Z,3004.00
2018-08-12T04:46:24.021Z,3240.00
2018-08-12T04:47:24.020Z,3500.00
2018-08-12T04:48:24.014Z,3716.00
2018-08-12T04:49:24.014Z,3844.00
2018-08-12T04:50:24.013Z,3972.00
2018-08-12T04:51:24.018Z,4072.00
2018-08-12T04:52:24.012Z,4156.00
2018-08-12T04:53:24.011Z,4248.00
2018-08-12T04:54:24.012Z,4328.00
2018-08-12T04:55:24.007Z,4388.00
2018-08-12T04:56:24.007Z,4432.00
2018-08-12T04:57:24.008Z,4480.00
2018-08-12T04:58:24.006Z,4544.00
2018-08-12T04:59:24.005Z,4580.00
2018-08-12T05:00:24.005Z,4580.00
2018-08-12T05:01:24.004Z,4520.00
2018-08-12T05:02:24.004Z,4592.00
2018-08-12T05:03:24.004Z,4596.00
2018-08-12T05:04:24.004Z,4656.00
2018-08-12T05:05:24.003Z,4708.00
2018-08-12T05:06:24.004Z,4768.00
2018-08-12T05:07:24.002Z,4812.00
2018-08-12T05:08:24.001Z,4780.00
2018-08-12T05:09:24.004Z,4712.00
2018-08-12T05:10:24.003Z,4900.00
2018-08-12T05:11:24.003Z,5020.00
2018-08-12T05:12:24.004Z,5088.00
2018-08-12T05:13:24.005Z,5124.00
2018-08-12T05:14:24.008Z,5160.00
2018-08-12T05:15:24.007Z,5208.00
2018-08-12T05:16:24.007Z,5256.00
2018-08-12T05:17:24.007Z,5292.00
2018-08-12T05:18:24.009Z,5348.00
2018-08-12T05:19:24.010Z,5368.00
2018-08-12T05:20:24.008Z,5396.00
2018-08-12T05:21:24.013Z,5452.00
2018-08-12T05:22:24.014Z,5484.00
2018-08-12T05:23:24.017Z,5504.00
2018-08-12T05:24:24.018Z,5536.00
2018-08-12T05:25:24.015Z,5572.00
2018-08-12T05:26:24.022Z,5592.00
2018-08-12T05:27:24.025Z,5636.00
2018-08-12T05:28:24.021Z,5636.00
2018-08-12T05:29:24.023Z,5660.00
2018-08-12T05:30:24.026Z,5684.00
2018-08-12T05:31:24.029Z,5684.00
2018-08-12T05:32:24.031Z,5680.00
2018-08-12T05:33:24.032Z,5684.00
2018-08-12T05:34:24.033Z,5712.00
2018-08-12T05:35:24.035Z,5732.00
2018-08-12T05:36:24.039Z,5792.00
2018-08-12T05:37:24.043Z,5896.00
2018-08-12T05:38:24.041Z,5892.00
2018-08-12T05:39:24.045Z,5932.00
2018-08-12T05:40:24.046Z,5852.00
2018-08-12T05:41:24.050Z,5964.00
2018-08-12T05:42:24.053Z,6056.00
2018-08-12T05:43:24.056Z,6040.00
2018-08-12T05:44:24.060Z,6172.00
2018-08-12T05:45:24.059Z,6288.00
2018-08-12T05:46:24.066Z,6376.00
2018-08-12T05:47:24.066Z,6476.00
2018-08-12T05:48:24.070Z,6544.00
2018-08-12T05:49:24.072Z,6708.00
2018-08-12T05:50:24.075Z,6832.00
2018-08-12T05:51:24.085Z,7024.00
2018-08-12T05:52:24.079Z,7360.00
2018-08-12T05:53:24.088Z,9160.00
2018-08-12T05:54:24.090Z,14432.00
2018-08-12T05:55:24.091Z,17984.00
2018-08-12T05:56:24.094Z,17664.00
2018-08-12T05:57:24.096Z,18464.00
2018-08-12T05:58:24.105Z,20672.00
2018-08-12T05:59:24.105Z,22304.00
2018-08-12T06:00:24.109Z,22720.00
2018-08-12T06:01:24.113Z,24320.00
2018-08-12T06:02:24.115Z,24352.00
2018-08-12T06:03:24.121Z,22848.00
2018-08-12T06:04:24.122Z,21184.00
2018-08-12T06:05:24.128Z,19680.00
2018-08-12T06:06:24.131Z,20832.00
2018-08-12T06:07:24.142Z,23936.00
2018-08-12T06:08:24.140Z,25152.00
2018-08-12T06:09:24.145Z,26080.00
2018-08-12T06:10:24.148Z,29568.00
2018-08-12T06:11:24.153Z,28672.00
2018-08-12T06:12:24.160Z,27808.00
2018-08-12T06:13:24.161Z,26272.00
2018-08-12T06:14:24.167Z,25728.00
2018-08-12T06:15:24.171Z,25824.00
2018-08-12T06:16:24.175Z,25120.00
2018-08-12T06:17:24.232Z,28352.00
2018-08-12T06:18:24.187Z,29152.00
2018-08-12T06:19:24.193Z,30816.00
2018-08-12T06:20:24.195Z,32896.00
2018-08-12T06:21:24.204Z,34272.00
2018-08-12T06:22:24.205Z,33088.00
2018-08-12T06:23:24.211Z,33120.00
2018-08-12T06:24:24.216Z,35488.00
2018-08-12T06:25:24.220Z,32832.00
2018-08-12T06:26:24.226Z,31584.00
2018-08-12T06:27:24.233Z,31328.00
2018-08-12T06:28:24.237Z,31872.00
2018-08-12T06:29:24.243Z,32544.00
2018-08-12T06:30:24.248Z,30272.00
2018-08-12T06:31:24.276Z,28512.00
2018-08-12T06:32:24.292Z,23296.00
2018-08-12T06:33:24.264Z,24896.00
2018-08-12T06:34:24.306Z,24320.00
2018-08-12T06:35:24.276Z,27680.00
2018-08-12T06:36:24.281Z,25728.00
2018-08-12T06:37:24.287Z,27328.00
2018-08-12T06:38:24.293Z,25920.00
2018-08-12T06:39:24.297Z,24672.00
2018-08-12T06:40:24.304Z,21568.00
2018-08-12T06:41:24.312Z,23808.00
2018-08-12T06:42:24.314Z,27328.00
2018-08-12T06:43:24.319Z,25472.00
2018-08-12T06:44:24.325Z,27392.00
2018-08-12T06:45:24.335Z,29568.00
2018-08-12T06:46:24.385Z,30816.00
2018-08-12T06:47:24.344Z,31840.00
2018-08-12T06:48:24.350Z,30624.00
2018-08-12T06:49:24.367Z,35136.00
2018-08-12T06:50:24.362Z,36064.00
2018-08-12T06:51:24.369Z,35584.00
2018-08-12T06:52:24.375Z,34112.00
2018-08-12T06:53:24.380Z,32448.00
2018-08-12T06:54:24.387Z,32224.00
2018-08-12T06:55:24.397Z,30048.00
2018-08-12T06:56:24.398Z,33472.00
2018-08-12T06:57:24.406Z,30496.00
2018-08-12T06:58:24.411Z,41280.00
2018-08-12T06:59:24.425Z,51200.00
2018-08-12T07:00:24.462Z,48544.00
2018-08-12T07:01:24.429Z,40480.00
2018-08-12T07:02:24.436Z,32000.00
2018-08-12T07:03:24.446Z,27168.00
2018-08-12T07:04:24.448Z,30432.00
2018-08-12T07:05:24.455Z,37760.00
2018-08-12T07:06:24.462Z,42336.00
2018-08-12T07:07:24.469Z,46560.00
2018-08-12T07:08:24.476Z,40608.00
2018-08-12T07:09:24.480Z,30112.00
2018-08-12T07:10:24.487Z,25440.00
2018-08-12T07:11:24.492Z,24224.00
2018-08-12T07:12:24.499Z,27136.00
2018-08-12T07:13:24.505Z,32704.00
2018-08-12T07:14:24.636Z,34816.00
2018-08-12T07:15:24.520Z,35840.00
2018-08-12T07:16:24.525Z,35008.00
2018-08-12T07:17:24.537Z,34720.00
2018-08-12T07:18:24.542Z,31776.00
2018-08-12T07:19:24.549Z,31904.00
2018-08-12T07:20:24.553Z,34016.00
2018-08-12T07:21:24.569Z,33824.00
2018-08-12T07:22:24.568Z,32256.00
2018-08-12T07:23:24.575Z,33952.00
2018-08-12T07:24:24.582Z,32480.00
2018-08-12T07:25:24.588Z,32480.00
2018-08-12T07:26:24.597Z,33152.00
2018-08-12T07:27:24.604Z,36032.00
2018-08-12T07:28:24.611Z,38976.00
2018-08-12T07:29:24.619Z,43392.00
2018-08-12T07:30:24.626Z,49664.00
2018-08-12T07:31:24.635Z,50528.00
2018-08-12T07:32:24.641Z,47040.00
2018-08-12T07:33:24.650Z,45600.00
2018-08-12T07:34:24.656Z,39584.00
2018-08-12T07:35:24.672Z,29792.00
2018-08-12T07:36:24.676Z,26688.00
2018-08-12T07:37:24.684Z,28992.00
2018-08-12T07:38:24.686Z,39616.00
2018-08-12T07:39:24.694Z,49504.00
2018-08-12T07:40:24.699Z,50976.00
2018-08-12T07:41:24.710Z,53472.00
2018-08-12T07:42:24.720Z,60960.00
2018-08-12T07:43:24.726Z,59392.00
2018-08-12T07:44:24.733Z,53056.00
2018-08-12T07:45:24.734Z,52576.00
2018-08-12T07:46:24.746Z,52416.00
2018-08-12T07:47:24.760Z,47136.00
2018-08-12T07:48:24.764Z,44288.00
2018-08-12T07:49:24.771Z,47456.00
2018-08-12T07:50:24.780Z,46368.00
2018-08-12T07:51:24.788Z,44480.00
2018-08-12T07:52:24.797Z,49184.00
2018-08-12T07:53:24.807Z,53248.00
2018-08-12T07:54:24.816Z,54656.00
2018-08-12T07:55:24.829Z,52064.00
2018-08-12T07:56:24.827Z,45824.00
2018-08-12T07:57:24.836Z,40672.00
2018-08-12T07:58:24.845Z,41536.00
2018-08-12T07:59:24.853Z,42528.00
2018-08-12T08:00:24.861Z,43904.00
2018-08-12T08:01:24.869Z,45280.00
2018-08-12T08:02:24.878Z,52832.00
2018-08-12T08:03:24.887Z,59008.00
2018-08-12T08:04:24.895Z,55584.00
2018-08-12T08:05:24.905Z,46432.00
2018-08-12T08:06:24.981Z,45760.00
2018-08-12T08:07:24.921Z,52256.00
2018-08-12T08:08:24.932Z,58560.00
2018-08-12T08:09:24.943Z,60416.00
2018-08-12T08:10:24.947Z,64032.00
2018-08-12T08:11:24.956Z,73600.00
2018-08-12T08:12:25.006Z,77632.00
2018-08-12T08:13:24.973Z,67424.00
2018-08-12T08:14:24.987Z,68032.00
2018-08-12T08:15:24.992Z,70720.00
2018-08-12T08:16:25.001Z,72096.00
2018-08-12T08:17:25.011Z,72064.00
2018-08-12T08:18:25.020Z,69024.00
2018-08-12T08:19:25.034Z,73792.00
2018-08-12T08:20:25.064Z,75424.00
2018-08-12T08:21:25.049Z,72768.00
2018-08-12T08:22:25.061Z,67968.00
2018-08-12T08:23:25.068Z,64672.00
2018-08-12T08:24:25.107Z,63840.00
2018-08-12T08:25:25.125Z,62656.00
2018-08-12T08:26:25.095Z,59936.00
2018-08-12T08:27:25.103Z,62496.00
2018-08-12T08:28:25.124Z,73568.00
2018-08-12T08:29:25.134Z,77472.00
2018-08-12T08:30:25.136Z,69184.00
2018-08-12T08:31:25.157Z,65024.00
2018-08-12T08:32:25.156Z,68224.00
2018-08-12T08:33:25.166Z,73472.00
2018-08-12T08:34:25.172Z,77664.00
2018-08-12T08:35:25.195Z,75616.00
2018-08-12T08:36:25.194Z,70720.00
2018-08-12T08:37:25.205Z,66400.00
2018-08-12T08:38:25.213Z,68416.00
2018-08-12T08:39:25.225Z,53216.00
2018-08-12T08:40:25.237Z,47616.00
2018-08-12T08:41:25.245Z,57472.00
2018-08-12T08:42:25.252Z,60160.00
2018-08-12T08:43:25.265Z,74624.00
2018-08-12T08:44:25.282Z,78752.00
2018-08-12T08:45:25.286Z,75328.00
2018-08-12T08:46:25.291Z,75168.00
2018-08-12T08:47:25.305Z,72384.00
2018-08-12T08:48:25.314Z,54272.00
2018-08-12T08:49:25.337Z,9152.00
2018-08-12T08:50:25.333Z,8484.00
2018-08-12T08:51:25.344Z,8088.00
2018-08-12T08:52:25.353Z,7796.00
2018-08-12T08:53:25.363Z,7248.00
2018-08-12T08:54:25.383Z,7228.00
2018-08-12T08:55:25.380Z,6840.00
2018-08-12T08:56:25.391Z,6584.00
2018-08-12T08:57:25.403Z,6436.00
2018-08-12T08:58:25.405Z,6568.00
2018-08-12T08:59:25.418Z,6996.00
2018-08-12T09:00:25.424Z,6808.00
2018-08-12T09:01:25.545Z,6624.00
2018-08-12T09:02:25.439Z,6576.00
2018-08-12T09:03:25.447Z,6420.00
2018-08-12T09:04:25.451Z,6164.00
2018-08-12T09:05:25.462Z,5688.00
2018-08-12T09:06:25.470Z,5576.00
2018-08-12T09:07:25.479Z,5608.00
2018-08-12T09:08:25.910Z,5604.00
2018-08-12T09:09:25.493Z,5584.00
2018-08-12T09:10:25.499Z,5588.00
2018-08-12T09:11:25.506Z,5592.00
2018-08-12T09:12:25.513Z,5608.00
2018-08-12T09:13:25.519Z,5676.00
2018-08-12T09:14:25.528Z,5668.00
2018-08-12T09:15:25.532Z,5836.00
2018-08-12T09:16:25.552Z,5700.00
2018-08-12T09:17:25.545Z,5704.00
2018-08-12T09:18:25.549Z,5788.00
2018-08-12T09:19:25.561Z,6452.00
2018-08-12T09:20:25.562Z,6072.00
2018-08-12T09:21:25.568Z,5968.00
2018-08-12T09:22:25.579Z,5728.00
2018-08-12T09:23:25.580Z,6408.00
2018-08-12T09:24:25.588Z,6672.00
2018-08-12T09:25:25.591Z,6672.00
2018-08-12T09:26:25.596Z,6412.00
2018-08-12T09:27:25.603Z,6336.00
2018-08-12T09:28:25.609Z,6536.00
2018-08-12T09:29:25.645Z,6308.00
2018-08-12T09:30:25.623Z,5940.00
2018-08-12T09:31:25.628Z,6020.00
2018-08-12T09:32:25.632Z,6064.00
2018-08-12T09:33:25.634Z,6564.00
2018-08-12T09:34:25.639Z,5792.00
2018-08-12T09:35:25.644Z,5656.00
2018-08-12T09:36:25.650Z,5728.00
2018-08-12T09:37:25.655Z,6384.00
2018-08-12T09:38:25.663Z,5996.00
2018-08-12T09:39:25.690Z,5836.00
2018-08-12T09:40:25.670Z,6728.00
2018-08-12T09:41:25.676Z,5888.00
2018-08-12T09:42:25.680Z,5016.00
2018-08-12T09:43:25.686Z,5476.00
2018-08-12T09:44:25.689Z,5716.00
2018-08-12T09:45:25.693Z,6240.00
2018-08-12T09:46:25.698Z,6272.00
2018-08-12T09:47:25.705Z,6088.00
2018-08-12T09:48:25.707Z,5932.00
2018-08-12T09:49:25.714Z,5732.00
2018-08-12T09:50:25.716Z,5328.00
2018-08-12T09:51:25.780Z,5608.00
2018-08-12T09:52:25.724Z,5688.00
2018-08-12T09:53:25.730Z,6100.00
2018-08-12T09:54:25.737Z,7024.00
2018-08-12T09:55:25.742Z,7600.00
2018-08-12T09:56:25.748Z,7512.00
2018-08-12T09:57:25.749Z,6268.00
2018-08-12T09:58:25.811Z,5248.00
2018-08-12T09:59:25.764Z,4672.00
2018-08-12T10:00:25.851Z,4528.00
2018-08-12T10:01:25.767Z,4728.00
2018-08-12T10:02:25.771Z,4928.00
2018-08-12T10:03:25.774Z,5080.00
2018-08-12T10:04:25.782Z,5200.00
2018-08-12T10:05:25.783Z,5212.00
2018-08-12T10:06:25.787Z,5280.00
2018-08-12T10:07:25.805Z,5568.00
2018-08-12T10:08:25.799Z,5448.00
2018-08-12T10:09:25.801Z,5516.00
2018-08-12T10:10:25.805Z,5088.00
2018-08-12T10:11:25.809Z,5012.00
2018-08-12T10:12:25.815Z,5332.00
2018-08-12T10:13:25.817Z,5876.00
2018-08-12T10:14:25.823Z,5640.00
2018-08-12T10:15:25.873Z,5172.00
2018-08-12T10:16:25.832Z,5068.00
2018-08-12T10:17:25.834Z,5264.00
2018-08-12T10:18:25.839Z,5448.00
2018-08-12T10:19:25.841Z,5880.00
2018-08-12T10:20:25.847Z,6068.00
2018-08-12T10:21:25.857Z,5864.00
2018-08-12T10:22:25.857Z,5928.00
2018-08-12T10:23:25.864Z,5884.00
2018-08-12T10:24:25.864Z,5888.00
2018-08-12T10:25:25.873Z,6032.00
2018-08-12T10:26:25.873Z,5916.00
2018-08-12T10:27:25.876Z,6028.00
2018-08-12T10:28:25.881Z,6164.00
2018-08-12T10:29:25.888Z,6360.00
2018-08-12T10:30:25.890Z,6476.00
2018-08-12T10:31:25.892Z,6340.00
2018-08-12T10:32:25.896Z,6228.00
2018-08-12T10:33:25.901Z,5972.00
2018-08-12T10:34:25.910Z,5812.00
2018-08-12T10:35:25.910Z,5788.00
2018-08-12T10:36:25.918Z,5856.00
2018-08-12T10:37:25.919Z,5784.00
2018-08-12T10:38:25.923Z,5744.00
2018-08-12T10:39:25.932Z,5836.00
2018-08-12T10:40:25.934Z,5888.00
2018-08-12T10:41:25.939Z,5756.00
2018-08-12T10:42:25.942Z,5608.00
2018-08-12T10:43:25.945Z,5484.00
2018-08-12T10:44:25.998Z,5552.00
2018-08-12T10:45:25.956Z,5800.00
2018-08-12T10:46:25.958Z,5828.00
2018-08-12T10:47:25.963Z,5628.00
2018-08-12T10:48:25.969Z,5384.00
2018-08-12T10:49:25.971Z,5284.00
2018-08-12T10:50:25.977Z,5120.00
2018-08-12T10:51:25.983Z,5080.00
2018-08-12T10:52:25.986Z,5044.00
2018-08-12T10:53:25.985Z,5080.00
2018-08-12T10:54:25.993Z,5048.00
2018-08-12T10:55:25.997Z,5324.00
2018-08-12T10:56:26.000Z,5752.00
2018-08-12T10:57:26.002Z,5736.00
2018-08-12T10:58:26.011Z,5860.00
2018-08-12T10:59:26.106Z,5864.00
2018-08-12T11:00:26.019Z,6164.00
2018-08-12T11:01:26.024Z,6484.00
2018-08-12T11:02:26.027Z,6772.00
2018-08-12T11:03:26.032Z,6956.00
2018-08-12T11:04:26.037Z,6652.00
2018-08-12T11:05:26.048Z,6360.00
2018-08-12T11:06:26.044Z,6076.00
2018-08-12T11:07:26.093Z,5956.00
2018-08-12T11:08:26.057Z,5960.00
2018-08-12T11:09:26.059Z,5932.00
2018-08-12T11:10:26.063Z,5960.00
2018-08-12T11:11:26.069Z,6112.00
2018-08-12T11:12:26.106Z,6052.00
2018-08-12T11:13:26.077Z,5884.00
2018-08-12T11:14:26.079Z,5816.00
2018-08-12T11:15:26.085Z,5768.00
2018-08-12T11:16:26.087Z,5852.00
2018-08-12T11:17:26.094Z,5704.00
2018-08-12T11:18:26.098Z,5632.00
2018-08-12T11:19:26.101Z,5604.00
2018-08-12T11:20:26.173Z,5576.00
2018-08-12T11:21:26.110Z,5572.00
2018-08-12T11:22:26.119Z,5416.00
2018-08-12T11:23:26.119Z,5208.00
2018-08-12T11:24:26.123Z,4940.00
2018-08-12T11:25:26.131Z,4776.00
2018-08-12T11:26:26.131Z,4944.00
2018-08-12T11:27:26.138Z,5156.00
2018-08-12T11:28:26.151Z,5420.00
2018-08-12T11:29:26.149Z,5520.00
2018-08-12T11:30:26.150Z,5708.00
2018-08-12T11:31:26.155Z,5824.00
2018-08-12T11:32:26.158Z,5876.00
2018-08-12T11:33:26.162Z,5980.00
2018-08-12T11:34:26.167Z,6100.00
2018-08-12T11:35:26.171Z,6132.00
2018-08-12T11:36:26.175Z,5988.00
2018-08-12T11:37:26.181Z,5696.00
2018-08-12T11:38:26.185Z,5316.00
2018-08-12T11:39:26.192Z,4712.00
2018-08-12T11:40:26.192Z,4152.00
2018-08-12T11:41:26.199Z,3948.00
2018-08-12T11:42:26.203Z,3844.00
2018-08-12T11:43:26.209Z,3812.00
2018-08-12T11:44:26.210Z,3732.00
2018-08-12T11:45:26.227Z,3704.00
2018-08-12T11:46:26.222Z,3732.00
2018-08-12T11:47:26.271Z,3776.00
2018-08-12T11:48:26.229Z,3788.00
2018-08-12T11:49:26.238Z,3760.00
2018-08-12T11:50:26.238Z,3712.00
2018-08-12T11:51:26.243Z,3600.00
2018-08-12T11:52:26.247Z,3484.00
2018-08-12T11:53:26.251Z,3388.00
2018-08-12T11:54:26.254Z,3304.00
2018-08-12T11:55:26.259Z,3224.00
2018-08-12T11:56:26.264Z,3180.00
2018-08-12T11:57:26.271Z,3184.00
2018-08-12T11:58:26.273Z,3160.00
2018-08-12T11:59:26.280Z,3140.00
2018-08-12T12:00:26.285Z,3152.00
2018-08-12T12:01:26.285Z,3112.00
2018-08-12T12:02:26.291Z,3140.00
2018-08-12T12:03:26.294Z,3156.00
2018-08-12T12:04:26.359Z,3172.00
2018-08-12T12:05:26.308Z,3176.00
2018-08-12T12:06:26.308Z,3148.00
2018-08-12T12:07:26.310Z,3112.00
2018-08-12T12:08:26.316Z,3124.00
2018-08-12T12:09:26.320Z,3128.00
2018-08-12T12:10:26.325Z,3144.00
2018-08-12T12:11:26.331Z,3184.00
2018-08-12T12:12:26.334Z,3252.00
2018-08-12T12:13:26.336Z,3280.00
2018-08-12T12:14:26.342Z,3284.00
2018-08-12T12:15:26.346Z,3232.00
2018-08-12T12:16:26.347Z,3152.00
2018-08-12T12:17:26.352Z,3140.00
2018-08-12T12:18:26.359Z,3120.00
2018-08-12T12:19:26.366Z,3104.00
2018-08-12T12:20:26.370Z,3088.00